sensor_id;sensor_type;location;lat;lon;timestamp;P1;durP1;ratioP1;P2;durP2;ratioP2
71910;SDS011;59783;52.232;5.170;2023-02-13T00:01:48;54.33;;;33.67;;
71910;SDS011;59783;52.232;5.170;2023-02-13T00:04:13;56.50;;;33.70;;
71910;SDS011;59783;52.232;5.170;2023-02-13T00:06:38;59.20;;;34.53;;
71910;SDS011;59783;52.232;5.170;2023-02-13T00:09:03;56.07;;;34.07;;
71910;SDS011;59783;52.232;5.170;2023-02-13T00:11:28;57.33;;;33.00;;
71910;SDS011;59783;52.232;5.170;2023-02-13T00:13:54;56.93;;;34.13;;
71910;SDS011;59783;52.232;5.170;2023-02-13T00:16:19;53.20;;;34.30;;
71910;SDS011;59783;52.232;5.170;2023-02-13T00:18:44;53.87;;;32.33;;
71910;SDS011;59783;52.232;5.170;2023-02-13T00:21:10;53.40;;;33.10;;
71910;SDS011;59783;52.232;5.170;2023-02-13T00:23:35;59.15;;;33.65;;
71910;SDS011;59783;52.232;5.170;2023-02-13T00:26:04;55.13;;;33.72;;
71910;SDS011;59783;52.232;5.170;2023-02-13T00:31:00;56.58;;;34.17;;
71910;SDS011;59783;52.232;5.170;2023-02-13T00:33:26;53.70;;;32.72;;
71910;SDS011;59783;52.232;5.170;2023-02-13T00:35:51;57.73;;;33.87;;
71910;SDS011;59783;52.232;5.170;2023-02-13T00:38:16;55.87;;;32.37;;
71910;SDS011;59783;52.232;5.170;2023-02-13T00:40:41;51.77;;;30.70;;
71910;SDS011;59783;52.232;5.170;2023-02-13T00:43:06;58.17;;;33.00;;
71910;SDS011;59783;52.232;5.170;2023-02-13T00:45:31;54.37;;;33.10;;
71910;SDS011;59783;52.232;5.170;2023-02-13T00:47:57;54.53;;;33.60;;
71910;SDS011;59783;52.232;5.170;2023-02-13T00:50:22;54.83;;;34.57;;
71910;SDS011;59783;52.232;5.170;2023-02-13T00:52:47;52.47;;;33.93;;
71910;SDS011;59783;52.232;5.170;2023-02-13T00:55:12;57.50;;;35.30;;
71910;SDS011;59783;52.232;5.170;2023-02-13T00:57:37;58.50;;;33.13;;
71910;SDS011;59783;52.232;5.170;2023-02-13T01:00:02;56.43;;;33.37;;
71910;SDS011;59783;52.232;5.170;2023-02-13T01:02:28;54.92;;;33.85;;
71910;SDS011;59783;52.232;5.170;2023-02-13T01:04:54;55.10;;;32.83;;
71910;SDS011;59783;52.232;5.170;2023-02-13T01:07:19;54.33;;;34.05;;
71910;SDS011;59783;52.232;5.170;2023-02-13T01:09:44;57.47;;;35.40;;
71910;SDS011;59783;52.232;5.170;2023-02-13T01:12:09;55.40;;;33.95;;
71910;SDS011;59783;52.232;5.170;2023-02-13T01:14:35;53.65;;;33.35;;
71910;SDS011;59783;52.232;5.170;2023-02-13T01:17:00;58.90;;;33.93;;
71910;SDS011;59783;52.232;5.170;2023-02-13T01:19:26;58.47;;;33.10;;
71910;SDS011;59783;52.232;5.170;2023-02-13T01:21:51;53.27;;;33.97;;
71910;SDS011;59783;52.232;5.170;2023-02-13T01:24:16;58.10;;;33.73;;
71910;SDS011;59783;52.232;5.170;2023-02-13T01:26:41;58.27;;;35.07;;
71910;SDS011;59783;52.232;5.170;2023-02-13T01:29:08;55.90;;;35.45;;
71910;SDS011;59783;52.232;5.170;2023-02-13T01:31:33;58.72;;;34.35;;
71910;SDS011;59783;52.232;5.170;2023-02-13T01:33:58;54.07;;;34.90;;
71910;SDS011;59783;52.232;5.170;2023-02-13T01:36:24;60.13;;;34.92;;
71910;SDS011;59783;52.232;5.170;2023-02-13T01:38:53;55.40;;;34.35;;
71910;SDS011;59783;52.232;5.170;2023-02-13T01:41:19;55.67;;;33.55;;
71910;SDS011;59783;52.232;5.170;2023-02-13T01:43:55;63.22;;;34.83;;
71910;SDS011;59783;52.232;5.170;2023-02-13T01:46:41;56.00;;;33.33;;
71910;SDS011;59783;52.232;5.170;2023-02-13T01:51:35;57.70;;;33.58;;
71910;SDS011;59783;52.232;5.170;2023-02-13T01:54:09;57.15;;;33.70;;
71910;SDS011;59783;52.232;5.170;2023-02-13T01:56:40;59.40;;;33.70;;
71910;SDS011;59783;52.232;5.170;2023-02-13T01:59:09;56.22;;;33.90;;
71910;SDS011;59783;52.232;5.170;2023-02-13T02:01:36;60.47;;;35.05;;
71910;SDS011;59783;52.232;5.170;2023-02-13T02:06:27;49.28;;;31.85;;
71910;SDS011;59783;52.232;5.170;2023-02-13T02:08:54;55.67;;;34.20;;
71910;SDS011;59783;52.232;5.170;2023-02-13T02:11:23;54.22;;;32.95;;
71910;SDS011;59783;52.232;5.170;2023-02-13T02:13:49;54.42;;;33.63;;
71910;SDS011;59783;52.232;5.170;2023-02-13T02:16:15;49.97;;;31.88;;
71910;SDS011;59783;52.232;5.170;2023-02-13T02:18:40;51.53;;;31.60;;
71910;SDS011;59783;52.232;5.170;2023-02-13T02:31:36;59.03;;;33.00;;
71910;SDS011;59783;52.232;5.170;2023-02-13T02:34:17;50.70;;;32.15;;
71910;SDS011;59783;52.232;5.170;2023-02-13T02:36:57;52.28;;;32.45;;
71910;SDS011;59783;52.232;5.170;2023-02-13T02:44:40;52.78;;;31.63;;
71910;SDS011;59783;52.232;5.170;2023-02-13T02:47:17;53.03;;;30.88;;
71910;SDS011;59783;52.232;5.170;2023-02-13T02:52:38;53.95;;;31.67;;
71910;SDS011;59783;52.232;5.170;2023-02-13T02:57:44;55.80;;;32.92;;
71910;SDS011;59783;52.232;5.170;2023-02-13T03:00:29;54.53;;;32.80;;
71910;SDS011;59783;52.232;5.170;2023-02-13T03:03:21;53.55;;;32.05;;
71910;SDS011;59783;52.232;5.170;2023-02-13T03:06:49;54.85;;;32.20;;
71910;SDS011;59783;52.232;5.170;2023-02-13T03:08:55;50.38;;;32.38;;
71910;SDS011;59783;52.232;5.170;2023-02-13T03:11:40;52.85;;;32.83;;
71910;SDS011;59783;52.232;5.170;2023-02-13T03:14:25;52.53;;;31.83;;
71910;SDS011;59783;52.232;5.170;2023-02-13T03:16:51;51.55;;;31.38;;
71910;SDS011;59783;52.232;5.170;2023-02-13T03:22:44;55.33;;;34.15;;
71910;SDS011;59783;52.232;5.170;2023-02-13T03:25:29;51.97;;;32.45;;
71910;SDS011;59783;52.232;5.170;2023-02-13T03:31:08;50.25;;;30.65;;
71910;SDS011;59783;52.232;5.170;2023-02-13T03:39:12;47.95;;;32.38;;
71910;SDS011;59783;52.232;5.170;2023-02-13T03:46:56;48.63;;;31.25;;
71910;SDS011;59783;52.232;5.170;2023-02-13T03:49:24;53.40;;;31.88;;
71910;SDS011;59783;52.232;5.170;2023-02-13T03:52:10;49.85;;;32.17;;
71910;SDS011;59783;52.232;5.170;2023-02-13T03:54:45;54.60;;;33.20;;
71910;SDS011;59783;52.232;5.170;2023-02-13T03:57:31;51.92;;;33.78;;
71910;SDS011;59783;52.232;5.170;2023-02-13T04:00:16;49.78;;;32.38;;
71910;SDS011;59783;52.232;5.170;2023-02-13T04:05:35;52.63;;;32.45;;
71910;SDS011;59783;52.232;5.170;2023-02-13T04:10:26;51.20;;;32.22;;
71910;SDS011;59783;52.232;5.170;2023-02-13T04:15:31;49.10;;;29.67;;
71910;SDS011;59783;52.232;5.170;2023-02-13T04:20:27;53.25;;;30.95;;
71910;SDS011;59783;52.232;5.170;2023-02-13T04:22:53;49.33;;;31.15;;
71910;SDS011;59783;52.232;5.170;2023-02-13T04:25:18;49.70;;;30.65;;
71910;SDS011;59783;52.232;5.170;2023-02-13T04:27:44;53.92;;;30.83;;
71910;SDS011;59783;52.232;5.170;2023-02-13T04:30:09;50.67;;;31.75;;
71910;SDS011;59783;52.232;5.170;2023-02-13T04:32:34;50.65;;;31.00;;
71910;SDS011;59783;52.232;5.170;2023-02-13T04:35:00;46.30;;;31.90;;
71910;SDS011;59783;52.232;5.170;2023-02-13T04:37:25;47.23;;;30.73;;
71910;SDS011;59783;52.232;5.170;2023-02-13T04:39:50;48.67;;;32.17;;
71910;SDS011;59783;52.232;5.170;2023-02-13T04:42:15;52.13;;;32.77;;
71910;SDS011;59783;52.232;5.170;2023-02-13T04:44:40;51.13;;;31.30;;
71910;SDS011;59783;52.232;5.170;2023-02-13T04:47:06;52.57;;;31.73;;
71910;SDS011;59783;52.232;5.170;2023-02-13T04:49:31;51.67;;;32.20;;
71910;SDS011;59783;52.232;5.170;2023-02-13T04:51:56;46.88;;;30.23;;
71910;SDS011;59783;52.232;5.170;2023-02-13T04:54:21;45.77;;;29.80;;
71910;SDS011;59783;52.232;5.170;2023-02-13T04:56:46;52.27;;;30.77;;
71910;SDS011;59783;52.232;5.170;2023-02-13T04:59:12;52.63;;;31.73;;
71910;SDS011;59783;52.232;5.170;2023-02-13T05:01:37;45.87;;;29.57;;
71910;SDS011;59783;52.232;5.170;2023-02-13T05:04:02;51.83;;;31.43;;
71910;SDS011;59783;52.232;5.170;2023-02-13T05:06:27;47.73;;;29.40;;
71910;SDS011;59783;52.232;5.170;2023-02-13T05:08:52;46.07;;;30.57;;
71910;SDS011;59783;52.232;5.170;2023-02-13T05:11:17;55.47;;;32.67;;
71910;SDS011;59783;52.232;5.170;2023-02-13T05:13:43;46.13;;;30.50;;
71910;SDS011;59783;52.232;5.170;2023-02-13T05:16:08;48.67;;;29.93;;
71910;SDS011;59783;52.232;5.170;2023-02-13T05:18:33;45.10;;;29.27;;
71910;SDS011;59783;52.232;5.170;2023-02-13T05:20:58;46.93;;;30.47;;
71910;SDS011;59783;52.232;5.170;2023-02-13T05:23:42;50.13;;;31.33;;
71910;SDS011;59783;52.232;5.170;2023-02-13T05:26:07;50.37;;;30.70;;
71910;SDS011;59783;52.232;5.170;2023-02-13T05:28:32;49.97;;;29.27;;
71910;SDS011;59783;52.232;5.170;2023-02-13T05:31:16;52.08;;;30.48;;
71910;SDS011;59783;52.232;5.170;2023-02-13T05:33:41;52.60;;;29.52;;
71910;SDS011;59783;52.232;5.170;2023-02-13T05:36:07;53.60;;;31.30;;
71910;SDS011;59783;52.232;5.170;2023-02-13T05:38:32;47.72;;;30.88;;
71910;SDS011;59783;52.232;5.170;2023-02-13T05:41:00;54.13;;;32.35;;
71910;SDS011;59783;52.232;5.170;2023-02-13T05:43:26;49.15;;;31.42;;
71910;SDS011;59783;52.232;5.170;2023-02-13T05:45:59;45.72;;;29.52;;
71910;SDS011;59783;52.232;5.170;2023-02-13T05:48:24;48.78;;;29.92;;
71910;SDS011;59783;52.232;5.170;2023-02-13T05:50:49;50.30;;;30.57;;
71910;SDS011;59783;52.232;5.170;2023-02-13T05:53:14;49.57;;;30.23;;
71910;SDS011;59783;52.232;5.170;2023-02-13T05:55:40;48.90;;;29.77;;
71910;SDS011;59783;52.232;5.170;2023-02-13T05:58:05;49.13;;;30.13;;
71910;SDS011;59783;52.232;5.170;2023-02-13T06:00:32;44.63;;;28.67;;
71910;SDS011;59783;52.232;5.170;2023-02-13T06:02:57;48.23;;;30.60;;
71910;SDS011;59783;52.232;5.170;2023-02-13T06:05:22;47.70;;;28.83;;
71910;SDS011;59783;52.232;5.170;2023-02-13T06:07:48;50.40;;;30.97;;
71910;SDS011;59783;52.232;5.170;2023-02-13T06:10:13;50.10;;;30.37;;
71910;SDS011;59783;52.232;5.170;2023-02-13T06:12:38;49.53;;;30.80;;
71910;SDS011;59783;52.232;5.170;2023-02-13T06:15:03;50.97;;;30.60;;
71910;SDS011;59783;52.232;5.170;2023-02-13T06:17:29;52.05;;;31.48;;
71910;SDS011;59783;52.232;5.170;2023-02-13T06:19:54;50.13;;;30.07;;
71910;SDS011;59783;52.232;5.170;2023-02-13T06:22:19;50.37;;;30.57;;
71910;SDS011;59783;52.232;5.170;2023-02-13T06:24:44;47.43;;;28.73;;
71910;SDS011;59783;52.232;5.170;2023-02-13T06:27:09;54.83;;;32.33;;
71910;SDS011;59783;52.232;5.170;2023-02-13T06:29:35;48.33;;;30.30;;
71910;SDS011;59783;52.232;5.170;2023-02-13T06:32:00;52.95;;;29.67;;
71910;SDS011;59783;52.232;5.170;2023-02-13T06:34:25;51.60;;;30.17;;
71910;SDS011;59783;52.232;5.170;2023-02-13T06:36:50;46.60;;;29.90;;
71910;SDS011;59783;52.232;5.170;2023-02-13T06:39:16;49.15;;;31.70;;
71910;SDS011;59783;52.232;5.170;2023-02-13T06:41:41;51.70;;;30.00;;
71910;SDS011;59783;52.232;5.170;2023-02-13T06:44:07;49.87;;;29.00;;
71910;SDS011;59783;52.232;5.170;2023-02-13T06:46:32;50.47;;;30.90;;
71910;SDS011;59783;52.232;5.170;2023-02-13T06:48:57;49.30;;;28.70;;
71910;SDS011;59783;52.232;5.170;2023-02-13T06:51:22;50.87;;;30.37;;
71910;SDS011;59783;52.232;5.170;2023-02-13T06:53:47;50.50;;;30.10;;
71910;SDS011;59783;52.232;5.170;2023-02-13T06:56:13;50.90;;;31.60;;
71910;SDS011;59783;52.232;5.170;2023-02-13T06:58:38;53.92;;;32.47;;
71910;SDS011;59783;52.232;5.170;2023-02-13T07:01:04;53.88;;;29.83;;
71910;SDS011;59783;52.232;5.170;2023-02-13T07:03:29;54.08;;;31.35;;
71910;SDS011;59783;52.232;5.170;2023-02-13T07:05:54;49.53;;;28.57;;
71910;SDS011;59783;52.232;5.170;2023-02-13T07:08:20;48.50;;;30.42;;
71910;SDS011;59783;52.232;5.170;2023-02-13T07:10:46;50.53;;;30.38;;
71910;SDS011;59783;52.232;5.170;2023-02-13T07:13:11;51.70;;;31.42;;
71910;SDS011;59783;52.232;5.170;2023-02-13T07:15:36;54.20;;;30.87;;
71910;SDS011;59783;52.232;5.170;2023-02-13T07:18:02;48.67;;;30.52;;
71910;SDS011;59783;52.232;5.170;2023-02-13T07:20:27;52.45;;;29.52;;
71910;SDS011;59783;52.232;5.170;2023-02-13T07:22:56;53.53;;;32.73;;
71910;SDS011;59783;52.232;5.170;2023-02-13T07:25:21;49.88;;;30.17;;
71910;SDS011;59783;52.232;5.170;2023-02-13T07:27:46;55.10;;;31.80;;
71910;SDS011;59783;52.232;5.170;2023-02-13T07:30:11;54.47;;;31.63;;
71910;SDS011;59783;52.232;5.170;2023-02-13T07:32:37;53.85;;;32.85;;
71910;SDS011;59783;52.232;5.170;2023-02-13T07:35:02;55.95;;;34.63;;
71910;SDS011;59783;52.232;5.170;2023-02-13T07:37:28;53.97;;;33.25;;
71910;SDS011;59783;52.232;5.170;2023-02-13T07:39:53;53.88;;;31.17;;
71910;SDS011;59783;52.232;5.170;2023-02-13T07:42:19;50.13;;;30.63;;
71910;SDS011;59783;52.232;5.170;2023-02-13T07:44:44;50.23;;;32.33;;
71910;SDS011;59783;52.232;5.170;2023-02-13T07:47:09;51.90;;;32.53;;
71910;SDS011;59783;52.232;5.170;2023-02-13T07:49:35;50.20;;;31.27;;
71910;SDS011;59783;52.232;5.170;2023-02-13T07:52:01;51.50;;;31.25;;
71910;SDS011;59783;52.232;5.170;2023-02-13T07:54:26;49.17;;;30.00;;
71910;SDS011;59783;52.232;5.170;2023-02-13T07:56:51;52.57;;;32.13;;
71910;SDS011;59783;52.232;5.170;2023-02-13T07:59:17;54.72;;;31.25;;
71910;SDS011;59783;52.232;5.170;2023-02-13T08:01:42;51.23;;;31.60;;
71910;SDS011;59783;52.232;5.170;2023-02-13T08:04:07;55.73;;;31.47;;
71910;SDS011;59783;52.232;5.170;2023-02-13T08:06:32;52.53;;;30.90;;
71910;SDS011;59783;52.232;5.170;2023-02-13T08:08:58;56.10;;;31.50;;
71910;SDS011;59783;52.232;5.170;2023-02-13T08:11:42;53.17;;;32.72;;
71910;SDS011;59783;52.232;5.170;2023-02-13T08:14:20;55.17;;;31.52;;
71910;SDS011;59783;52.232;5.170;2023-02-13T08:16:46;53.45;;;31.17;;
71910;SDS011;59783;52.232;5.170;2023-02-13T08:19:11;54.33;;;33.33;;
71910;SDS011;59783;52.232;5.170;2023-02-13T08:21:37;51.65;;;32.97;;
71910;SDS011;59783;52.232;5.170;2023-02-13T08:24:04;56.92;;;35.22;;
71910;SDS011;59783;52.232;5.170;2023-02-13T08:26:30;53.58;;;31.27;;
71910;SDS011;59783;52.232;5.170;2023-02-13T08:28:55;52.95;;;32.95;;
71910;SDS011;59783;52.232;5.170;2023-02-13T08:31:20;55.37;;;33.07;;
71910;SDS011;59783;52.232;5.170;2023-02-13T08:33:45;56.67;;;36.63;;
71910;SDS011;59783;52.232;5.170;2023-02-13T08:36:11;54.20;;;33.47;;
71910;SDS011;59783;52.232;5.170;2023-02-13T08:38:36;54.95;;;34.13;;
71910;SDS011;59783;52.232;5.170;2023-02-13T08:41:01;58.20;;;34.63;;
71910;SDS011;59783;52.232;5.170;2023-02-13T08:43:26;55.30;;;35.57;;
71910;SDS011;59783;52.232;5.170;2023-02-13T08:45:52;52.17;;;31.23;;
71910;SDS011;59783;52.232;5.170;2023-02-13T08:48:17;55.93;;;34.20;;
71910;SDS011;59783;52.232;5.170;2023-02-13T08:50:42;54.50;;;35.00;;
71910;SDS011;59783;52.232;5.170;2023-02-13T08:53:07;56.27;;;33.90;;
71910;SDS011;59783;52.232;5.170;2023-02-13T08:55:32;58.77;;;33.60;;
71910;SDS011;59783;52.232;5.170;2023-02-13T08:57:59;55.10;;;33.95;;
71910;SDS011;59783;52.232;5.170;2023-02-13T09:00:24;57.15;;;35.55;;
71910;SDS011;59783;52.232;5.170;2023-02-13T09:02:49;58.07;;;35.83;;
71910;SDS011;59783;52.232;5.170;2023-02-13T09:05:15;55.27;;;34.73;;
71910;SDS011;59783;52.232;5.170;2023-02-13T09:07:40;53.45;;;33.08;;
71910;SDS011;59783;52.232;5.170;2023-02-13T09:10:05;49.57;;;33.70;;
71910;SDS011;59783;52.232;5.170;2023-02-13T09:12:31;55.35;;;35.13;;
71910;SDS011;59783;52.232;5.170;2023-02-13T09:14:56;57.33;;;34.65;;
71910;SDS011;59783;52.232;5.170;2023-02-13T09:17:21;57.10;;;34.17;;
71910;SDS011;59783;52.232;5.170;2023-02-13T09:19:47;56.73;;;32.73;;
71910;SDS011;59783;52.232;5.170;2023-02-13T09:22:12;51.70;;;31.53;;
71910;SDS011;59783;52.232;5.170;2023-02-13T09:24:39;53.70;;;33.45;;
71910;SDS011;59783;52.232;5.170;2023-02-13T09:27:04;61.17;;;34.37;;
71910;SDS011;59783;52.232;5.170;2023-02-13T09:29:29;55.22;;;33.63;;
71910;SDS011;59783;52.232;5.170;2023-02-13T09:31:57;50.58;;;34.70;;
71910;SDS011;59783;52.232;5.170;2023-02-13T09:34:22;52.73;;;33.77;;
71910;SDS011;59783;52.232;5.170;2023-02-13T09:36:51;50.27;;;33.60;;
71910;SDS011;59783;52.232;5.170;2023-02-13T09:39:17;49.75;;;33.40;;
71910;SDS011;59783;52.232;5.170;2023-02-13T09:41:42;52.63;;;33.63;;
71910;SDS011;59783;52.232;5.170;2023-02-13T09:47:03;50.13;;;32.78;;
71910;SDS011;59783;52.232;5.170;2023-02-13T09:49:30;46.63;;;33.90;;
71910;SDS011;59783;52.232;5.170;2023-02-13T09:51:56;53.20;;;34.17;;
71910;SDS011;59783;52.232;5.170;2023-02-13T09:54:22;50.58;;;33.92;;
71910;SDS011;59783;52.232;5.170;2023-02-13T10:01:48;48.13;;;33.65;;
71910;SDS011;59783;52.232;5.170;2023-02-13T10:06:46;48.72;;;32.08;;
71910;SDS011;59783;52.232;5.170;2023-02-13T10:09:28;50.03;;;32.42;;
71910;SDS011;59783;52.232;5.170;2023-02-13T10:12:19;47.47;;;32.13;;
71910;SDS011;59783;52.232;5.170;2023-02-13T10:14:46;49.25;;;31.95;;
71910;SDS011;59783;52.232;5.170;2023-02-13T10:17:15;47.35;;;31.90;;
71910;SDS011;59783;52.232;5.170;2023-02-13T10:20:02;50.15;;;32.88;;
71910;SDS011;59783;52.232;5.170;2023-02-13T10:22:30;47.63;;;31.17;;
71910;SDS011;59783;52.232;5.170;2023-02-13T10:27:39;47.30;;;30.98;;
71910;SDS011;59783;52.232;5.170;2023-02-13T10:30:07;47.85;;;32.83;;
71910;SDS011;59783;52.232;5.170;2023-02-13T10:32:52;48.05;;;31.77;;
71910;SDS011;59783;52.232;5.170;2023-02-13T10:35:36;47.53;;;31.05;;
71910;SDS011;59783;52.232;5.170;2023-02-13T10:38:03;49.00;;;33.83;;
71910;SDS011;59783;52.232;5.170;2023-02-13T10:40:37;47.30;;;31.45;;
71910;SDS011;59783;52.232;5.170;2023-02-13T10:43:07;51.17;;;34.50;;
71910;SDS011;59783;52.232;5.170;2023-02-13T10:48:20;46.17;;;32.35;;
71910;SDS011;59783;52.232;5.170;2023-02-13T10:51:07;47.58;;;31.85;;
71910;SDS011;59783;52.232;5.170;2023-02-13T11:01:27;43.25;;;33.28;;
71910;SDS011;59783;52.232;5.170;2023-02-13T11:04:07;44.30;;;31.25;;
71910;SDS011;59783;52.232;5.170;2023-02-13T11:06:36;45.00;;;31.77;;
71910;SDS011;59783;52.232;5.170;2023-02-13T11:09:03;47.45;;;32.88;;
71910;SDS011;59783;52.232;5.170;2023-02-13T11:16:42;50.55;;;34.33;;
71910;SDS011;59783;52.232;5.170;2023-02-13T11:19:31;44.33;;;30.50;;
71910;SDS011;59783;52.232;5.170;2023-02-13T11:21:58;44.75;;;29.63;;
71910;SDS011;59783;52.232;5.170;2023-02-13T11:24:25;43.22;;;30.50;;
71910;SDS011;59783;52.232;5.170;2023-02-13T11:26:52;47.10;;;32.47;;
71910;SDS011;59783;52.232;5.170;2023-02-13T11:29:29;46.10;;;31.30;;
71910;SDS011;59783;52.232;5.170;2023-02-13T11:34:39;46.45;;;30.55;;
71910;SDS011;59783;52.232;5.170;2023-02-13T11:39:36;42.88;;;30.30;;
71910;SDS011;59783;52.232;5.170;2023-02-13T11:42:01;42.85;;;32.78;;
71910;SDS011;59783;52.232;5.170;2023-02-13T11:44:30;43.95;;;30.60;;
71910;SDS011;59783;52.232;5.170;2023-02-13T11:46:59;41.55;;;29.42;;
71910;SDS011;59783;52.232;5.170;2023-02-13T11:49:25;43.63;;;30.55;;
71910;SDS011;59783;52.232;5.170;2023-02-13T11:51:53;43.72;;;30.33;;
71910;SDS011;59783;52.232;5.170;2023-02-13T11:54:23;43.20;;;30.25;;
71910;SDS011;59783;52.232;5.170;2023-02-13T11:59:53;42.08;;;31.98;;
71910;SDS011;59783;52.232;5.170;2023-02-13T12:04:45;41.83;;;30.40;;
71910;SDS011;59783;52.232;5.170;2023-02-13T12:07:14;38.00;;;29.55;;
71910;SDS011;59783;52.232;5.170;2023-02-13T12:09:40;41.15;;;29.40;;
71910;SDS011;59783;52.232;5.170;2023-02-13T12:12:06;39.75;;;29.50;;
71910;SDS011;59783;52.232;5.170;2023-02-13T12:14:36;38.08;;;28.05;;
71910;SDS011;59783;52.232;5.170;2023-02-13T12:17:06;38.58;;;28.90;;
71910;SDS011;59783;52.232;5.170;2023-02-13T12:19:37;38.75;;;28.77;;
71910;SDS011;59783;52.232;5.170;2023-02-13T12:24:35;41.37;;;29.27;;
71910;SDS011;59783;52.232;5.170;2023-02-13T12:47:54;39.22;;;28.95;;
71910;SDS011;59783;52.232;5.170;2023-02-13T13:18:18;35.75;;;26.15;;
71910;SDS011;59783;52.232;5.170;2023-02-13T13:28:49;38.80;;;27.52;;
71910;SDS011;59783;52.232;5.170;2023-02-13T13:31:16;39.80;;;26.75;;
71910;SDS011;59783;52.232;5.170;2023-02-13T13:33:43;35.95;;;26.67;;
71910;SDS011;59783;52.232;5.170;2023-02-13T13:36:12;37.42;;;26.85;;
71910;SDS011;59783;52.232;5.170;2023-02-13T13:39:01;35.95;;;27.30;;
71910;SDS011;59783;52.232;5.170;2023-02-13T13:47:03;35.58;;;25.58;;
71910;SDS011;59783;52.232;5.170;2023-02-13T13:54:35;36.60;;;26.80;;
71910;SDS011;59783;52.232;5.170;2023-02-13T13:57:03;32.88;;;26.52;;
71910;SDS011;59783;52.232;5.170;2023-02-13T14:02:25;39.05;;;28.10;;
71910;SDS011;59783;52.232;5.170;2023-02-13T14:07:38;40.17;;;32.40;;
71910;SDS011;59783;52.232;5.170;2023-02-13T14:10:05;42.28;;;31.58;;
71910;SDS011;59783;52.232;5.170;2023-02-13T14:14:58;43.15;;;30.35;;
71910;SDS011;59783;52.232;5.170;2023-02-13T14:22:52;37.13;;;26.75;;
71910;SDS011;59783;52.232;5.170;2023-02-13T14:25:21;38.83;;;27.38;;
71910;SDS011;59783;52.232;5.170;2023-02-13T14:27:58;38.83;;;29.27;;
71910;SDS011;59783;52.232;5.170;2023-02-13T14:30:26;39.10;;;28.25;;
71910;SDS011;59783;52.232;5.170;2023-02-13T14:32:51;35.10;;;26.42;;
71910;SDS011;59783;52.232;5.170;2023-02-13T14:35:21;35.45;;;28.40;;
71910;SDS011;59783;52.232;5.170;2023-02-13T14:37:54;35.33;;;27.42;;
71910;SDS011;59783;52.232;5.170;2023-02-13T14:45:39;37.72;;;26.80;;
71910;SDS011;59783;52.232;5.170;2023-02-13T14:48:10;35.60;;;26.90;;
71910;SDS011;59783;52.232;5.170;2023-02-13T14:50:48;33.47;;;25.88;;
71910;SDS011;59783;52.232;5.170;2023-02-13T14:53:18;37.00;;;27.42;;
71910;SDS011;59783;52.232;5.170;2023-02-13T14:55:45;35.80;;;27.23;;
71910;SDS011;59783;52.232;5.170;2023-02-13T14:58:30;35.78;;;26.48;;
71910;SDS011;59783;52.232;5.170;2023-02-13T15:04:06;35.90;;;28.00;;
71910;SDS011;59783;52.232;5.170;2023-02-13T15:06:40;35.25;;;26.75;;
71910;SDS011;59783;52.232;5.170;2023-02-13T15:09:21;37.55;;;28.17;;
71910;SDS011;59783;52.232;5.170;2023-02-13T15:11:48;33.95;;;26.30;;
71910;SDS011;59783;52.232;5.170;2023-02-13T15:16:45;34.05;;;25.10;;
71910;SDS011;59783;52.232;5.170;2023-02-13T15:19:13;34.25;;;25.05;;
71910;SDS011;59783;52.232;5.170;2023-02-13T15:21:39;33.17;;;25.05;;
71910;SDS011;59783;52.232;5.170;2023-02-13T15:24:10;34.38;;;24.30;;
71910;SDS011;59783;52.232;5.170;2023-02-13T15:26:37;32.78;;;23.70;;
71910;SDS011;59783;52.232;5.170;2023-02-13T15:29:16;33.05;;;25.67;;
71910;SDS011;59783;52.232;5.170;2023-02-13T15:31:41;34.25;;;25.90;;
71910;SDS011;59783;52.232;5.170;2023-02-13T15:34:17;35.40;;;25.42;;
71910;SDS011;59783;52.232;5.170;2023-02-13T15:36:43;35.25;;;26.00;;
71910;SDS011;59783;52.232;5.170;2023-02-13T15:39:14;33.07;;;25.77;;
71910;SDS011;59783;52.232;5.170;2023-02-13T15:41:41;33.30;;;24.05;;
71910;SDS011;59783;52.232;5.170;2023-02-13T15:44:12;32.83;;;25.08;;
71910;SDS011;59783;52.232;5.170;2023-02-13T15:46:39;30.73;;;23.90;;
71910;SDS011;59783;52.232;5.170;2023-02-13T15:49:07;34.85;;;25.85;;
71910;SDS011;59783;52.232;5.170;2023-02-13T15:51:33;35.10;;;27.08;;
71910;SDS011;59783;52.232;5.170;2023-02-13T15:54:00;37.08;;;26.30;;
71910;SDS011;59783;52.232;5.170;2023-02-13T15:56:26;30.85;;;24.80;;
71910;SDS011;59783;52.232;5.170;2023-02-13T15:58:52;37.38;;;28.15;;
71910;SDS011;59783;52.232;5.170;2023-02-13T16:01:18;33.95;;;25.95;;
71910;SDS011;59783;52.232;5.170;2023-02-13T16:03:44;36.55;;;25.58;;
71910;SDS011;59783;52.232;5.170;2023-02-13T16:06:12;37.15;;;28.20;;
71910;SDS011;59783;52.232;5.170;2023-02-13T16:08:38;38.22;;;28.95;;
71910;SDS011;59783;52.232;5.170;2023-02-13T16:11:52;34.85;;;26.70;;
71910;SDS011;59783;52.232;5.170;2023-02-13T16:14:41;37.25;;;26.35;;
71910;SDS011;59783;52.232;5.170;2023-02-13T16:16:43;38.72;;;26.17;;
71910;SDS011;59783;52.232;5.170;2023-02-13T16:19:21;36.13;;;25.83;;
71910;SDS011;59783;52.232;5.170;2023-02-13T16:21:47;39.72;;;27.02;;
71910;SDS011;59783;52.232;5.170;2023-02-13T16:24:13;36.55;;;25.85;;
71910;SDS011;59783;52.232;5.170;2023-02-13T16:26:39;36.63;;;25.70;;
71910;SDS011;59783;52.232;5.170;2023-02-13T16:31:32;35.63;;;26.10;;
71910;SDS011;59783;52.232;5.170;2023-02-13T16:33:58;35.50;;;26.60;;
71910;SDS011;59783;52.232;5.170;2023-02-13T16:36:27;41.08;;;27.60;;
71910;SDS011;59783;52.232;5.170;2023-02-13T16:38:53;38.47;;;27.52;;
71910;SDS011;59783;52.232;5.170;2023-02-13T16:46:15;35.03;;;26.52;;
71910;SDS011;59783;52.232;5.170;2023-02-13T16:51:38;39.78;;;27.95;;
71910;SDS011;59783;52.232;5.170;2023-02-13T16:54:13;42.33;;;27.92;;
71910;SDS011;59783;52.232;5.170;2023-02-13T16:56:40;37.15;;;26.52;;
71910;SDS011;59783;52.232;5.170;2023-02-13T17:02:07;41.92;;;28.30;;
71910;SDS011;59783;52.232;5.170;2023-02-13T17:04:34;48.25;;;28.90;;
71910;SDS011;59783;52.232;5.170;2023-02-13T17:07:03;39.38;;;28.38;;
71910;SDS011;59783;52.232;5.170;2023-02-13T17:09:29;40.10;;;28.73;;
71910;SDS011;59783;52.232;5.170;2023-02-13T17:11:54;40.73;;;27.70;;
71910;SDS011;59783;52.232;5.170;2023-02-13T17:14:37;44.67;;;29.00;;
71910;SDS011;59783;52.232;5.170;2023-02-13T17:19:30;37.63;;;27.75;;
71910;SDS011;59783;52.232;5.170;2023-02-13T17:21:56;42.13;;;28.10;;
71910;SDS011;59783;52.232;5.170;2023-02-13T17:24:22;42.17;;;28.60;;
71910;SDS011;59783;52.232;5.170;2023-02-13T17:26:47;39.38;;;27.63;;
71910;SDS011;59783;52.232;5.170;2023-02-13T17:29:13;38.38;;;27.70;;
71910;SDS011;59783;52.232;5.170;2023-02-13T17:31:38;39.08;;;29.02;;
71910;SDS011;59783;52.232;5.170;2023-02-13T17:34:03;42.60;;;28.77;;
71910;SDS011;59783;52.232;5.170;2023-02-13T17:36:29;43.10;;;29.27;;
71910;SDS011;59783;52.232;5.170;2023-02-13T17:38:54;41.60;;;29.37;;
71910;SDS011;59783;52.232;5.170;2023-02-13T17:41:19;42.10;;;28.75;;
71910;SDS011;59783;52.232;5.170;2023-02-13T17:43:45;44.75;;;30.27;;
71910;SDS011;59783;52.232;5.170;2023-02-13T17:46:11;45.77;;;29.47;;
71910;SDS011;59783;52.232;5.170;2023-02-13T17:48:36;46.47;;;29.43;;
71910;SDS011;59783;52.232;5.170;2023-02-13T17:51:01;50.63;;;31.30;;
71910;SDS011;59783;52.232;5.170;2023-02-13T17:53:28;46.13;;;30.45;;